Orondo, WA (98843)

7:41 PM PST on November 28, 2014 (GMT -0800)
APRSWXNET Chelan Area | Change Station
CLOSE
Current Station
Personal Weather Station
Location: Chelan, WA
Elevation: 1169 ft
Nearby Weather Stations

Elev 1169 ft 47.84 °N, 120.01 °W | Updated 6 seconds ago

Mostly Cloudy
Mostly Cloudy
44.1 °F
Feels Like 42 °F
N
3.6
Wind Variable Wind from North
Gusts 3.6 mph

Today
High -- | Low -- °F
--% Chance of Precip.
Yesterday
High -- | Low -- °F
Precip. -- in
7:24 AM 4:11 PM
Waxing Crescent, 47% visible
Pressure 29.28 in
Visibility -9999.0 miles
Clouds Scattered Clouds 6000 ft
Windchill 42 °F
Dew Point 31 °F
Humidity 60%
Rainfall 0.39 in
Snow Depth Not available.
UV 0 out of 12
Pollen .30 out of 12
Air Quality Not available.
Flu Activity Not available.
METAR KEAT 290255Z AUTO 31014KT SCT060 08/03 A2927 RMK AO2 SLP914 60000 T00830028 55002

More Conditions Fewer Conditions

Pressure 29.28 in
Visibility -9999.0 miles
Clouds Scattered Clouds 6000 ft
Windchill 42 °F
Dew Point 31 °F
Humidity 60%
Rainfall 0.39 in
Snow Depth Not available.
UV 0 out of 12
Pollen .30 out of 12
Air Quality Not available.
Flu Activity Not available.
METAR KEAT 290255Z AUTO 31014KT SCT060 08/03 A2927 RMK AO2 SLP914 60000 T00830028 55002

More Conditions Fewer Conditions

10-Day Weather Forecast

Almanac

Astronomy

Nov. 28, 2014 Rise Set
Actual Time
Civil Twilight
Nautical Twilight
Astronomical Twilight
Moon
Length of Visible Light
Length of Day
Tomorrow will be .
, % of the Moon is Illuminated

Today's Extremes

State Highs State Lows

Community

WunderPhotos

Upload Photos

1,774,389 photos uploaded!

WunderBlogs® & News

Nearby

Air Quality

  Air Quality AQ Index Pollutant
Not available.

Snow Depth

Station Depth Elevation

Earthquake Activity

City Distance Mag. Time & Date
Minimum magnitude displayed is 2.5.

Coastal Water Temperatures

Place Temperature

Nearby Weather Stations